sensor_id;sensor_type;location;lat;lon;timestamp;pressure;altitude;pressure_sealevel;temperature;humidity
37832;BME280;23671;38.090;-122.570;2023-04-21T00:00:01;102515.75;;;23.26;37.96
37832;BME280;23671;38.090;-122.570;2023-04-21T00:02:34;102506.97;;;23.24;38.08
37832;BME280;23671;38.090;-122.570;2023-04-21T00:05:09;102506.44;;;23.21;37.84
37832;BME280;23671;38.090;-122.570;2023-04-21T00:07:38;102509.84;;;23.23;37.67
37832;BME280;23671;38.090;-122.570;2023-04-21T00:10:10;102510.69;;;23.23;37.77
37832;BME280;23671;38.090;-122.570;2023-04-21T00:12:38;102502.56;;;23.15;37.92
37832;BME280;23671;38.090;-122.570;2023-04-21T00:15:06;102510.47;;;23.17;37.64
37832;BME280;23671;38.090;-122.570;2023-04-21T00:17:34;102516.38;;;23.20;37.85
37832;BME280;23671;38.090;-122.570;2023-04-21T00:20:03;102523.78;;;23.18;37.88
37832;BME280;23671;38.090;-122.570;2023-04-21T00:22:32;102518.72;;;23.15;37.81
37832;BME280;23671;38.090;-122.570;2023-04-21T00:24:59;102517.34;;;23.11;37.84
37832;BME280;23671;38.090;-122.570;2023-04-21T00:27:26;102522.56;;;23.13;38.17
37832;BME280;23671;38.090;-122.570;2023-04-21T00:29:53;102512.41;;;23.07;37.88
37832;BME280;23671;38.090;-122.570;2023-04-21T00:32:21;102518.72;;;23.15;37.73
37832;BME280;23671;38.090;-122.570;2023-04-21T00:34:48;102515.16;;;23.15;37.86
37832;BME280;23671;38.090;-122.570;2023-04-21T00:37:15;102519.88;;;23.13;37.99
37832;BME280;23671;38.090;-122.570;2023-04-21T00:39:42;102508.75;;;23.08;38.11
37832;BME280;23671;38.090;-122.570;2023-04-21T00:42:09;102504.66;;;23.04;37.92
37832;BME280;23671;38.090;-122.570;2023-04-21T00:44:36;102500.13;;;23.04;38.01
37832;BME280;23671;38.090;-122.570;2023-04-21T00:47:03;102502.28;;;23.01;37.75
37832;BME280;23671;38.090;-122.570;2023-04-21T00:49:31;102501.44;;;23.00;37.91
37832;BME280;23671;38.090;-122.570;2023-04-21T00:51:58;102506.00;;;23.00;37.97
37832;BME280;23671;38.090;-122.570;2023-04-21T00:54:26;102509.66;;;22.99;38.10
37832;BME280;23671;38.090;-122.570;2023-04-21T00:56:55;102510.16;;;22.94;38.01
37832;BME280;23671;38.090;-122.570;2023-04-21T00:59:25;102506.09;;;22.90;37.84
37832;BME280;23671;38.090;-122.570;2023-04-21T01:01:53;102507.56;;;22.85;37.85
37832;BME280;23671;38.090;-122.570;2023-04-21T01:04:21;102497.09;;;22.82;37.51
37832;BME280;23671;38.090;-122.570;2023-04-21T01:06:48;102503.50;;;22.81;37.81
37832;BME280;23671;38.090;-122.570;2023-04-21T01:09:15;102503.78;;;22.78;37.73
37832;BME280;23671;38.090;-122.570;2023-04-21T01:11:58;102502.75;;;22.71;37.93
37832;BME280;23671;38.090;-122.570;2023-04-21T01:14:28;102499.69;;;22.66;37.98
37832;BME280;23671;38.090;-122.570;2023-04-21T01:16:55;102494.44;;;22.64;37.93
37832;BME280;23671;38.090;-122.570;2023-04-21T01:19:23;102495.22;;;22.56;37.90
37832;BME280;23671;38.090;-122.570;2023-04-21T01:21:52;102499.19;;;22.52;38.06
37832;BME280;23671;38.090;-122.570;2023-04-21T01:24:42;102503.19;;;22.48;38.10
37832;BME280;23671;38.090;-122.570;2023-04-21T01:27:11;102507.75;;;22.48;38.10
37832;BME280;23671;38.090;-122.570;2023-04-21T01:29:40;102505.66;;;22.42;38.36
37832;BME280;23671;38.090;-122.570;2023-04-21T01:32:08;102505.44;;;22.35;38.23
37832;BME280;23671;38.090;-122.570;2023-04-21T01:34:35;102506.75;;;22.31;38.39
37832;BME280;23671;38.090;-122.570;2023-04-21T01:37:02;102492.91;;;22.26;38.35
37832;BME280;23671;38.090;-122.570;2023-04-21T01:39:29;102504.81;;;22.24;38.44
37832;BME280;23671;38.090;-122.570;2023-04-21T01:41:57;102497.22;;;22.19;38.44
37832;BME280;23671;38.090;-122.570;2023-04-21T01:44:25;102498.53;;;22.15;38.52
37832;BME280;23671;38.090;-122.570;2023-04-21T01:46:52;102502.81;;;22.08;38.50
37832;BME280;23671;38.090;-122.570;2023-04-21T01:49:19;102491.94;;;22.00;38.19
37832;BME280;23671;38.090;-122.570;2023-04-21T01:51:46;102500.19;;;21.99;38.20
37832;BME280;23671;38.090;-122.570;2023-04-21T01:54:14;102501.47;;;21.95;37.29
37832;BME280;23671;38.090;-122.570;2023-04-21T01:56:41;102510.03;;;21.90;37.20
37832;BME280;23671;38.090;-122.570;2023-04-21T01:59:08;102501.72;;;21.84;37.00
37832;BME280;23671;38.090;-122.570;2023-04-21T02:01:35;102503.97;;;21.79;37.27
37832;BME280;23671;38.090;-122.570;2023-04-21T02:04:05;102502.75;;;21.73;37.37
37832;BME280;23671;38.090;-122.570;2023-04-21T02:06:32;102506.72;;;21.69;37.33
37832;BME280;23671;38.090;-122.570;2023-04-21T02:08:59;102498.25;;;21.64;36.99
37832;BME280;23671;38.090;-122.570;2023-04-21T02:11:26;102495.16;;;21.59;37.17
37832;BME280;23671;38.090;-122.570;2023-04-21T02:13:54;102499.31;;;21.53;37.36
37832;BME280;23671;38.090;-122.570;2023-04-21T02:16:22;102500.59;;;21.49;37.65
37832;BME280;23671;38.090;-122.570;2023-04-21T02:18:56;102488.72;;;21.42;37.23
37832;BME280;23671;38.090;-122.570;2023-04-21T02:21:25;102491.03;;;21.37;37.70
37832;BME280;23671;38.090;-122.570;2023-04-21T02:23:53;102491.44;;;21.33;37.41
37832;BME280;23671;38.090;-122.570;2023-04-21T02:26:20;102484.84;;;21.27;37.09
37832;BME280;23671;38.090;-122.570;2023-04-21T02:28:47;102484.44;;;21.22;37.26
37832;BME280;23671;38.090;-122.570;2023-04-21T02:31:16;102493.94;;;21.17;37.54
37832;BME280;23671;38.090;-122.570;2023-04-21T02:33:44;102493.50;;;21.12;37.07
37832;BME280;23671;38.090;-122.570;2023-04-21T02:36:11;102497.63;;;21.06;37.08
37832;BME280;23671;38.090;-122.570;2023-04-21T02:38:38;102496.38;;;21.01;36.70
37832;BME280;23671;38.090;-122.570;2023-04-21T02:41:06;102497.63;;;20.97;36.87
37832;BME280;23671;38.090;-122.570;2023-04-21T02:43:33;102490.16;;;20.91;36.89
37832;BME280;23671;38.090;-122.570;2023-04-21T02:46:04;102488.19;;;20.83;36.63
37832;BME280;23671;38.090;-122.570;2023-04-21T02:48:31;102493.00;;;20.79;36.28
37832;BME280;23671;38.090;-122.570;2023-04-21T02:50:58;102491.75;;;20.74;36.37
37832;BME280;23671;38.090;-122.570;2023-04-21T02:53:25;102475.66;;;20.64;36.50
37832;BME280;23671;38.090;-122.570;2023-04-21T02:55:52;102470.56;;;20.61;36.66
37832;BME280;23671;38.090;-122.570;2023-04-21T02:58:19;102474.56;;;20.57;36.23
37832;BME280;23671;38.090;-122.570;2023-04-21T03:00:46;102478.94;;;20.49;36.46
37832;BME280;23671;38.090;-122.570;2023-04-21T03:03:15;102480.34;;;20.43;36.65
37832;BME280;23671;38.090;-122.570;2023-04-21T03:05:42;102478.94;;;20.39;37.44
37832;BME280;23671;38.090;-122.570;2023-04-21T03:08:09;102467.91;;;20.33;36.54
37832;BME280;23671;38.090;-122.570;2023-04-21T03:10:37;102477.53;;;20.26;36.73
37832;BME280;23671;38.090;-122.570;2023-04-21T03:13:04;102481.63;;;20.20;37.06
37832;BME280;23671;38.090;-122.570;2023-04-21T03:15:31;102483.97;;;20.14;37.25
37832;BME280;23671;38.090;-122.570;2023-04-21T03:17:58;102475.66;;;20.07;37.07
37832;BME280;23671;38.090;-122.570;2023-04-21T03:20:26;102486.09;;;20.01;36.44
37832;BME280;23671;38.090;-122.570;2023-04-21T03:22:53;102484.53;;;19.98;36.71
37832;BME280;23671;38.090;-122.570;2023-04-21T03:25:20;102488.03;;;19.89;36.91
37832;BME280;23671;38.090;-122.570;2023-04-21T03:27:48;102489.59;;;19.82;37.17
37832;BME280;23671;38.090;-122.570;2023-04-21T03:30:15;102503.09;;;19.80;37.10
37832;BME280;23671;38.090;-122.570;2023-04-21T03:32:42;102487.47;;;19.76;36.71
37832;BME280;23671;38.090;-122.570;2023-04-21T03:35:09;102489.69;;;19.71;36.69
37832;BME280;23671;38.090;-122.570;2023-04-21T03:37:36;102488.25;;;19.67;36.24
37832;BME280;23671;38.090;-122.570;2023-04-21T03:40:04;102491.38;;;19.62;37.28
37832;BME280;23671;38.090;-122.570;2023-04-21T03:42:37;102505.31;;;19.56;36.82
37832;BME280;23671;38.090;-122.570;2023-04-21T03:45:04;102510.25;;;19.51;36.44
37832;BME280;23671;38.090;-122.570;2023-04-21T03:47:32;102507.81;;;19.48;36.77
37832;BME280;23671;38.090;-122.570;2023-04-21T03:49:59;102513.56;;;19.44;36.18
37832;BME280;23671;38.090;-122.570;2023-04-21T03:52:26;102516.81;;;19.38;35.87
37832;BME280;23671;38.090;-122.570;2023-04-21T03:54:53;102525.50;;;19.30;36.23
37832;BME280;23671;38.090;-122.570;2023-04-21T03:57:20;102527.97;;;19.22;36.22
37832;BME280;23671;38.090;-122.570;2023-04-21T03:59:47;102544.16;;;19.21;37.35
37832;BME280;23671;38.090;-122.570;2023-04-21T04:02:14;102540.31;;;19.14;36.20
37832;BME280;23671;38.090;-122.570;2023-04-21T04:04:41;102528.19;;;19.10;36.52
37832;BME280;23671;38.090;-122.570;2023-04-21T04:07:08;102538.69;;;19.01;36.45
37832;BME280;23671;38.090;-122.570;2023-04-21T04:09:35;102543.88;;;18.93;36.44
37832;BME280;23671;38.090;-122.570;2023-04-21T04:12:02;102548.31;;;18.83;36.33
37832;BME280;23671;38.090;-122.570;2023-04-21T04:14:30;102555.63;;;18.81;36.44
37832;BME280;23671;38.090;-122.570;2023-04-21T04:16:58;102565.75;;;18.78;36.54
37832;BME280;23671;38.090;-122.570;2023-04-21T04:19:30;102564.53;;;18.71;36.51
37832;BME280;23671;38.090;-122.570;2023-04-21T04:21:59;102561.56;;;18.64;36.79
37832;BME280;23671;38.090;-122.570;2023-04-21T04:24:26;102565.59;;;18.59;36.53
37832;BME280;23671;38.090;-122.570;2023-04-21T04:26:54;102566.34;;;18.50;36.71
37832;BME280;23671;38.090;-122.570;2023-04-21T04:29:23;102568.56;;;18.45;36.76
37832;BME280;23671;38.090;-122.570;2023-04-21T04:31:50;102568.16;;;18.38;37.01
37832;BME280;23671;38.090;-122.570;2023-04-21T04:34:17;102579.78;;;18.28;36.77
37832;BME280;23671;38.090;-122.570;2023-04-21T04:36:45;102582.81;;;18.23;37.08
37832;BME280;23671;38.090;-122.570;2023-04-21T04:39:14;102580.91;;;18.14;37.10
37832;BME280;23671;38.090;-122.570;2023-04-21T04:41:42;102587.06;;;18.14;37.15
37832;BME280;23671;38.090;-122.570;2023-04-21T04:44:09;102589.53;;;18.06;37.15
37832;BME280;23671;38.090;-122.570;2023-04-21T04:46:36;102591.47;;;18.04;37.23
37832;BME280;23671;38.090;-122.570;2023-04-21T04:49:05;102595.72;;;17.96;37.27
37832;BME280;23671;38.090;-122.570;2023-04-21T04:51:32;102592.00;;;17.87;37.23
37832;BME280;23671;38.090;-122.570;2023-04-21T04:53:59;102589.56;;;17.84;37.43
37832;BME280;23671;38.090;-122.570;2023-04-21T04:56:26;102586.53;;;17.78;37.55
37832;BME280;23671;38.090;-122.570;2023-04-21T04:58:55;102593.09;;;17.74;37.53
37832;BME280;23671;38.090;-122.570;2023-04-21T05:01:22;102604.00;;;17.71;37.41
37832;BME280;23671;38.090;-122.570;2023-04-21T05:03:55;102602.53;;;17.67;37.42
37832;BME280;23671;38.090;-122.570;2023-04-21T05:06:23;102595.13;;;17.59;37.46
37832;BME280;23671;38.090;-122.570;2023-04-21T05:08:50;102606.91;;;17.57;37.56
37832;BME280;23671;38.090;-122.570;2023-04-21T05:11:17;102611.41;;;17.56;37.53
37832;BME280;23671;38.090;-122.570;2023-04-21T05:13:44;102604.75;;;17.62;37.55
37832;BME280;23671;38.090;-122.570;2023-04-21T05:16:11;102604.88;;;17.60;37.50
37832;BME280;23671;38.090;-122.570;2023-04-21T05:18:38;102601.47;;;17.58;37.31
37832;BME280;23671;38.090;-122.570;2023-04-21T05:21:06;102601.09;;;17.52;37.46
37832;BME280;23671;38.090;-122.570;2023-04-21T05:23:33;102596.19;;;17.46;37.76
37832;BME280;23671;38.090;-122.570;2023-04-21T05:26:00;102596.91;;;17.37;37.79
37832;BME280;23671;38.090;-122.570;2023-04-21T05:28:27;102595.56;;;17.31;37.96
37832;BME280;23671;38.090;-122.570;2023-04-21T05:30:55;102600.78;;;17.21;38.08
37832;BME280;23671;38.090;-122.570;2023-04-21T05:33:22;102608.28;;;17.16;37.97
37832;BME280;23671;38.090;-122.570;2023-04-21T05:35:49;102605.09;;;17.11;38.25
37832;BME280;23671;38.090;-122.570;2023-04-21T05:38:16;102609.97;;;17.06;38.12
37832;BME280;23671;38.090;-122.570;2023-04-21T05:40:43;102612.44;;;16.97;38.25
37832;BME280;23671;38.090;-122.570;2023-04-21T05:43:10;102614.75;;;16.90;38.19
37832;BME280;23671;38.090;-122.570;2023-04-21T05:45:40;102604.41;;;16.86;38.56
37832;BME280;23671;38.090;-122.570;2023-04-21T05:48:07;102601.88;;;16.84;38.36
37832;BME280;23671;38.090;-122.570;2023-04-21T05:50:34;102599.44;;;16.81;38.44
37832;BME280;23671;38.090;-122.570;2023-04-21T05:53:02;102592.63;;;16.77;38.39
37832;BME280;23671;38.090;-122.570;2023-04-21T05:55:29;102600.13;;;16.72;38.61
37832;BME280;23671;38.090;-122.570;2023-04-21T05:57:56;102610.06;;;16.70;38.83
37832;BME280;23671;38.090;-122.570;2023-04-21T06:00:23;102604.22;;;16.65;38.84
37832;BME280;23671;38.090;-122.570;2023-04-21T06:02:50;102613.41;;;16.61;38.71
37832;BME280;23671;38.090;-122.570;2023-04-21T06:05:17;102602.00;;;16.59;38.75
37832;BME280;23671;38.090;-122.570;2023-04-21T06:07:44;102608.78;;;16.52;39.09
37832;BME280;23671;38.090;-122.570;2023-04-21T06:10:13;102602.88;;;16.47;39.11
37832;BME280;23671;38.090;-122.570;2023-04-21T06:12:40;102601.19;;;16.46;38.93
37832;BME280;23671;38.090;-122.570;2023-04-21T06:15:07;102605.03;;;16.42;38.99
37832;BME280;23671;38.090;-122.570;2023-04-21T06:17:35;102589.47;;;16.36;38.89
37832;BME280;23671;38.090;-122.570;2023-04-21T06:20:02;102593.13;;;16.35;38.86
37832;BME280;23671;38.090;-122.570;2023-04-21T06:22:29;102596.97;;;16.31;39.01
37832;BME280;23671;38.090;-122.570;2023-04-21T06:24:56;102599.97;;;16.26;38.92
37832;BME280;23671;38.090;-122.570;2023-04-21T06:27:23;102593.28;;;16.21;39.07
37832;BME280;23671;38.090;-122.570;2023-04-21T06:29:54;102592.53;;;16.19;39.47
37832;BME280;23671;38.090;-122.570;2023-04-21T06:32:23;102588.50;;;16.13;39.23
37832;BME280;23671;38.090;-122.570;2023-04-21T06:34:50;102580.72;;;16.10;39.28
37832;BME280;23671;38.090;-122.570;2023-04-21T06:37:18;102591.50;;;16.09;39.31
37832;BME280;23671;38.090;-122.570;2023-04-21T06:39:45;102583.94;;;16.03;39.25
37832;BME280;23671;38.090;-122.570;2023-04-21T06:42:12;102579.91;;;15.97;39.34
37832;BME280;23671;38.090;-122.570;2023-04-21T06:44:39;102583.63;;;15.95;39.38
37832;BME280;23671;38.090;-122.570;2023-04-21T06:47:06;102587.03;;;15.97;39.37
37832;BME280;23671;38.090;-122.570;2023-04-21T06:49:33;102582.19;;;15.91;39.42
37832;BME280;23671;38.090;-122.570;2023-04-21T06:52:00;102582.38;;;15.88;39.70
37832;BME280;23671;38.090;-122.570;2023-04-21T06:54:27;102574.41;;;15.88;39.50
37832;BME280;23671;38.090;-122.570;2023-04-21T06:56:54;102569.63;;;15.80;39.55
37832;BME280;23671;38.090;-122.570;2023-04-21T06:59:23;102573.13;;;15.81;39.68
37832;BME280;23671;38.090;-122.570;2023-04-21T07:01:50;102572.59;;;15.76;39.59
37832;BME280;23671;38.090;-122.570;2023-04-21T07:04:18;102581.69;;;15.73;39.63
37832;BME280;23671;38.090;-122.570;2023-04-21T07:06:45;102576.56;;;15.70;39.88
37832;BME280;23671;38.090;-122.570;2023-04-21T07:09:12;102573.25;;;15.67;39.90
37832;BME280;23671;38.090;-122.570;2023-04-21T07:11:40;102575.94;;;15.67;39.97
37832;BME280;23671;38.090;-122.570;2023-04-21T07:14:07;102572.63;;;15.63;39.99
37832;BME280;23671;38.090;-122.570;2023-04-21T07:16:34;102573.50;;;15.64;39.79
37832;BME280;23671;38.090;-122.570;2023-04-21T07:19:01;102573.69;;;15.61;39.81
37832;BME280;23671;38.090;-122.570;2023-04-21T07:21:28;102571.38;;;15.56;39.94
37832;BME280;23671;38.090;-122.570;2023-04-21T07:24:02;102572.19;;;15.57;39.94
37832;BME280;23671;38.090;-122.570;2023-04-21T07:26:29;102568.72;;;15.56;39.73
37832;BME280;23671;38.090;-122.570;2023-04-21T07:28:57;102561.03;;;15.52;39.82
37832;BME280;23671;38.090;-122.570;2023-04-21T07:31:24;102566.47;;;15.50;40.05
37832;BME280;23671;38.090;-122.570;2023-04-21T07:33:51;102571.88;;;15.48;40.14
37832;BME280;23671;38.090;-122.570;2023-04-21T07:36:18;102571.13;;;15.46;39.84
37832;BME280;23671;38.090;-122.570;2023-04-21T07:38:45;102574.16;;;15.42;39.78
37832;BME280;23671;38.090;-122.570;2023-04-21T07:41:13;102578.81;;;15.38;39.86
37832;BME280;23671;38.090;-122.570;2023-04-21T07:43:40;102574.66;;;15.34;39.93
37832;BME280;23671;38.090;-122.570;2023-04-21T07:46:07;102572.94;;;15.33;39.83
37832;BME280;23671;38.090;-122.570;2023-04-21T07:48:35;102563.25;;;15.32;40.03
37832;BME280;23671;38.090;-122.570;2023-04-21T07:51:02;102561.75;;;15.28;40.00
37832;BME280;23671;38.090;-122.570;2023-04-21T07:53:29;102560.03;;;15.27;39.99
37832;BME280;23671;38.090;-122.570;2023-04-21T07:55:56;102564.72;;;15.24;40.04
37832;BME280;23671;38.090;-122.570;2023-04-21T07:58:23;102563.78;;;15.25;39.93
37832;BME280;23671;38.090;-122.570;2023-04-21T08:00:50;102566.66;;;15.22;40.07
37832;BME280;23671;38.090;-122.570;2023-04-21T08:03:17;102563.25;;;15.20;40.11
37832;BME280;23671;38.090;-122.570;2023-04-21T08:05:44;102562.50;;;15.18;40.16
37832;BME280;23671;38.090;-122.570;2023-04-21T08:08:11;102561.75;;;15.16;40.05
37832;BME280;23671;38.090;-122.570;2023-04-21T08:10:38;102552.94;;;15.15;40.14
37832;BME280;23671;38.090;-122.570;2023-04-21T08:13:06;102549.72;;;15.10;40.24
37832;BME280;23671;38.090;-122.570;2023-04-21T08:15:34;102549.59;;;15.12;40.18
37832;BME280;23671;38.090;-122.570;2023-04-21T08:18:01;102547.16;;;15.09;40.31
37832;BME280;23671;38.090;-122.570;2023-04-21T08:20:28;102546.31;;;15.08;40.08
37832;BME280;23671;38.090;-122.570;2023-04-21T08:22:56;102550.88;;;15.06;40.09
37832;BME280;23671;38.090;-122.570;2023-04-21T08:25:23;102545.78;;;15.03;40.30
37832;BME280;23671;38.090;-122.570;2023-04-21T08:27:50;102549.38;;;15.02;40.29
37832;BME280;23671;38.090;-122.570;2023-04-21T08:30:17;102548.63;;;15.00;40.17
37832;BME280;23671;38.090;-122.570;2023-04-21T08:32:44;102543.44;;;14.99;40.23
37832;BME280;23671;38.090;-122.570;2023-04-21T08:35:11;102547.16;;;14.96;40.55
37832;BME280;23671;38.090;-122.570;2023-04-21T08:37:39;102543.84;;;14.93;40.23
37832;BME280;23671;38.090;-122.570;2023-04-21T08:40:06;102540.34;;;14.92;40.30
37832;BME280;23671;38.090;-122.570;2023-04-21T08:42:36;102536.94;;;14.90;40.37
37832;BME280;23671;38.090;-122.570;2023-04-21T08:45:04;102538.09;;;14.86;40.08
37832;BME280;23671;38.090;-122.570;2023-04-21T08:47:32;102538.75;;;14.90;40.29
37832;BME280;23671;38.090;-122.570;2023-04-21T08:50:00;102540.13;;;14.83;40.11
37832;BME280;23671;38.090;-122.570;2023-04-21T08:52:27;102527.66;;;14.83;40.32
37832;BME280;23671;38.090;-122.570;2023-04-21T08:54:55;102517.25;;;14.80;40.22
37832;BME280;23671;38.090;-122.570;2023-04-21T08:57:22;102529.78;;;14.78;40.47
37832;BME280;23671;38.090;-122.570;2023-04-21T08:59:49;102527.31;;;14.75;40.41
37832;BME280;23671;38.090;-122.570;2023-04-21T09:02:20;102523.72;;;14.76;40.30
37832;BME280;23671;38.090;-122.570;2023-04-21T09:04:48;102521.28;;;14.73;40.42
37832;BME280;23671;38.090;-122.570;2023-04-21T09:07:36;102519.69;;;14.71;40.24
37832;BME280;23671;38.090;-122.570;2023-04-21T09:10:07;102533.91;;;14.70;40.53
37832;BME280;23671;38.090;-122.570;2023-04-21T09:12:34;102533.16;;;14.68;40.26
37832;BME280;23671;38.090;-122.570;2023-04-21T09:15:05;102533.28;;;14.66;40.41
37832;BME280;23671;38.090;-122.570;2023-04-21T09:17:35;102539.34;;;14.68;40.39
37832;BME280;23671;38.090;-122.570;2023-04-21T09:20:20;102528.81;;;14.67;40.51
37832;BME280;23671;38.090;-122.570;2023-04-21T09:22:50;102531.47;;;14.67;40.46
37832;BME280;23671;38.090;-122.570;2023-04-21T09:25:19;102530.63;;;14.66;40.53
37832;BME280;23671;38.090;-122.570;2023-04-21T09:27:47;102528.19;;;14.63;40.46
37832;BME280;23671;38.090;-122.570;2023-04-21T09:30:18;102522.22;;;14.60;40.37
37832;BME280;23671;38.090;-122.570;2023-04-21T09:32:46;102526.78;;;14.57;40.29
37832;BME280;23671;38.090;-122.570;2023-04-21T09:35:13;102523.38;;;14.55;40.56
37832;BME280;23671;38.090;-122.570;2023-04-21T09:37:43;102524.41;;;14.53;40.51
37832;BME280;23671;38.090;-122.570;2023-04-21T09:40:13;102538.47;;;14.55;40.35
37832;BME280;23671;38.090;-122.570;2023-04-21T09:42:41;102529.97;;;14.50;40.60
37832;BME280;23671;38.090;-122.570;2023-04-21T09:45:09;102535.16;;;14.51;40.47
37832;BME280;23671;38.090;-122.570;2023-04-21T09:47:40;102539.09;;;14.46;40.48
37832;BME280;23671;38.090;-122.570;2023-04-21T09:50:12;102534.81;;;14.43;40.90
37832;BME280;23671;38.090;-122.570;2023-04-21T09:52:39;102537.38;;;14.45;40.68
37832;BME280;23671;38.090;-122.570;2023-04-21T09:55:13;102533.03;;;14.44;40.67
37832;BME280;23671;38.090;-122.570;2023-04-21T09:57:42;102532.16;;;14.43;40.50
37832;BME280;23671;38.090;-122.570;2023-04-21T10:00:12;102533.22;;;14.41;40.54
37832;BME280;23671;38.090;-122.570;2023-04-21T10:02:50;102530.88;;;14.36;40.69
37832;BME280;23671;38.090;-122.570;2023-04-21T10:05:17;102523.72;;;14.37;40.85
37832;BME280;23671;38.090;-122.570;2023-04-21T10:07:45;102529.25;;;14.34;40.44
37832;BME280;23671;38.090;-122.570;2023-04-21T10:12:45;102528.50;;;14.32;40.77
37832;BME280;23671;38.090;-122.570;2023-04-21T10:15:30;102527.75;;;14.30;40.70
37832;BME280;23671;38.090;-122.570;2023-04-21T10:18:17;102520.91;;;14.26;40.65
37832;BME280;23671;38.090;-122.570;2023-04-21T10:21:09;102518.94;;;14.29;40.80
37832;BME280;23671;38.090;-122.570;2023-04-21T10:26:05;102511.31;;;14.23;40.92
37832;BME280;23671;38.090;-122.570;2023-04-21T10:28:56;102517.72;;;14.21;40.62
37832;BME280;23671;38.090;-122.570;2023-04-21T10:31:50;102510.88;;;14.17;40.94
37832;BME280;23671;38.090;-122.570;2023-04-21T10:34:19;102504.06;;;14.13;40.58
37832;BME280;23671;38.090;-122.570;2023-04-21T10:44:43;102509.78;;;14.07;40.64
37832;BME280;23671;38.090;-122.570;2023-04-21T10:47:10;102522.31;;;14.05;41.04
37832;BME280;23671;38.090;-122.570;2023-04-21T10:49:39;102518.78;;;14.04;41.05
37832;BME280;23671;38.090;-122.570;2023-04-21T10:52:07;102520.50;;;14.05;40.68
37832;BME280;23671;38.090;-122.570;2023-04-21T10:57:16;102502.31;;;13.99;40.53
37832;BME280;23671;38.090;-122.570;2023-04-21T10:59:47;102502.41;;;13.98;40.54
37832;BME280;23671;38.090;-122.570;2023-04-21T11:02:16;102513.78;;;14.00;41.15
37832;BME280;23671;38.090;-122.570;2023-04-21T11:04:44;102513.13;;;13.96;41.07
37832;BME280;23671;38.090;-122.570;2023-04-21T11:07:17;102520.44;;;13.93;40.92
37832;BME280;23671;38.090;-122.570;2023-04-21T11:09:47;102510.78;;;13.92;41.20
37832;BME280;23671;38.090;-122.570;2023-04-21T11:12:16;102509.91;;;13.91;40.55
37832;BME280;23671;38.090;-122.570;2023-04-21T11:14:45;102519.78;;;13.89;40.60
37832;BME280;23671;38.090;-122.570;2023-04-21T11:17:15;102515.44;;;13.88;40.64
37832;BME280;23671;38.090;-122.570;2023-04-21T11:19:47;102519.88;;;13.88;41.03
37832;BME280;23671;38.090;-122.570;2023-04-21T11:22:17;102521.78;;;13.86;40.76
37832;BME280;23671;38.090;-122.570;2023-04-21T11:24:45;102521.78;;;13.86;40.94
37832;BME280;23671;38.090;-122.570;2023-04-21T11:27:13;102522.81;;;13.83;41.01
37832;BME280;23671;38.090;-122.570;2023-04-21T11:29:41;102510.53;;;13.82;40.97
37832;BME280;23671;38.090;-122.570;2023-04-21T11:32:10;102514.00;;;13.83;40.72
37832;BME280;23671;38.090;-122.570;2023-04-21T11:34:37;102513.28;;;13.81;41.13
37832;BME280;23671;38.090;-122.570;2023-04-21T11:37:07;102506.25;;;13.80;40.85
37832;BME280;23671;38.090;-122.570;2023-04-21T11:39:34;102501.97;;;13.77;40.76
37832;BME280;23671;38.090;-122.570;2023-04-21T11:42:01;102504.72;;;13.76;41.11
37832;BME280;23671;38.090;-122.570;2023-04-21T11:44:36;102491.66;;;13.73;41.00
37832;BME280;23671;38.090;-122.570;2023-04-21T11:47:24;102491.75;;;13.71;41.22
37832;BME280;23671;38.090;-122.570;2023-04-21T11:49:55;102491.84;;;13.69;41.14
37832;BME280;23671;38.090;-122.570;2023-04-21T11:52:28;102498.94;;;13.69;41.27
37832;BME280;23671;38.090;-122.570;2023-04-21T11:55:00;102495.38;;;13.70;41.28
37832;BME280;23671;38.090;-122.570;2023-04-21T11:57:29;102494.50;;;13.69;41.30
37832;BME280;23671;38.090;-122.570;2023-04-21T12:00:04;102500.88;;;13.67;41.20
37832;BME280;23671;38.090;-122.570;2023-04-21T12:02:37;102503.59;;;13.65;41.43
37832;BME280;23671;38.090;-122.570;2023-04-21T12:05:06;102499.28;;;13.64;41.16
37832;BME280;23671;38.090;-122.570;2023-04-21T12:07:36;102491.41;;;13.63;41.01
37832;BME280;23671;38.090;-122.570;2023-04-21T12:10:16;102497.75;;;13.60;40.83
37832;BME280;23671;38.090;-122.570;2023-04-21T12:12:44;102499.66;;;13.58;41.17
37832;BME280;23671;38.090;-122.570;2023-04-21T12:15:16;102498.78;;;13.58;41.21
37832;BME280;23671;38.090;-122.570;2023-04-21T12:17:49;102498.63;;;13.61;41.09
37832;BME280;23671;38.090;-122.570;2023-04-21T12:20:22;102494.34;;;13.58;40.97
37832;BME280;23671;38.090;-122.570;2023-04-21T12:22:49;102494.44;;;13.57;41.55
37832;BME280;23671;38.090;-122.570;2023-04-21T12:25:17;102502.41;;;13.57;41.20
37832;BME280;23671;38.090;-122.570;2023-04-21T12:27:57;102500.78;;;13.54;41.40
37832;BME280;23671;38.090;-122.570;2023-04-21T12:30:24;102501.81;;;13.52;40.85
37832;BME280;23671;38.090;-122.570;2023-04-21T12:32:51;102492.06;;;13.52;41.08
37832;BME280;23671;38.090;-122.570;2023-04-21T12:35:22;102496.53;;;13.52;41.52
37832;BME280;23671;38.090;-122.570;2023-04-21T12:37:49;102493.97;;;13.50;41.46
37832;BME280;23671;38.090;-122.570;2023-04-21T12:40:16;102495.00;;;13.48;41.30
37832;BME280;23671;38.090;-122.570;2023-04-21T12:42:43;102490.56;;;13.48;41.34